Harrisonville, Illinois
Current Conditions -  °F | °C
As of 3:53 PM on Sunday 23 Nov 2014 (Local Time) from KCPS Reporting Station
Light Rain Light Rain  
Wind Chill: 55°   Ceiling: 600
Heat Index: 55°   Visibility: 4mi
Dew Point: 53°   Wind: 6mph
Humidity: 93%   Direction: 130°SE
Pressure: 29.34"   Gusts: NA
Location:  38.2838°N, 90.3044°W
Report Text: KCPS 232153Z 13005KT 4SM -RA BR OVC006 13/12 A2934 RMK AO2 SLP935 P0010 T01280117
Loading
Personal Weather Stations






























Interactive Weather Map New forecast layout! Learn more

10-Day Weather Forecast

Advertisements
Track Severe Weather on mobile